createdAt,value
2023-07-21T00:01:00.247Z,49.80
2023-07-21T00:03:27.218Z,49.60
2023-07-21T00:05:54.250Z,49.60
2023-07-21T00:08:22.669Z,49.50
2023-07-21T00:10:49.705Z,49.30
2023-07-21T00:13:16.682Z,49.30
2023-07-21T00:15:46.346Z,49.30
2023-07-21T00:18:14.023Z,49.50
2023-07-21T00:20:40.997Z,49.60
2023-07-21T00:23:08.005Z,49.50
2023-07-21T00:25:35.015Z,49.70
2023-07-21T00:28:02.427Z,49.90
2023-07-21T00:30:29.778Z,49.90
2023-07-21T00:32:58.790Z,49.80
2023-07-21T00:35:25.892Z,49.60
2023-07-21T00:37:52.882Z,49.50
2023-07-21T00:40:20.363Z,49.60
2023-07-21T00:42:47.562Z,49.70
2023-07-21T00:45:15.772Z,49.70
2023-07-21T00:47:42.999Z,49.70
2023-07-21T00:50:10.176Z,50.00
2023-07-21T00:52:38.139Z,50.00
2023-07-21T00:55:05.480Z,50.10
2023-07-21T00:57:32.273Z,50.20
2023-07-21T00:59:59.265Z,50.30
2023-07-21T01:02:26.377Z,50.20
2023-07-21T01:05:01.188Z,50.30
2023-07-21T01:07:29.296Z,50.40
2023-07-21T01:09:56.358Z,50.50
2023-07-21T01:12:23.474Z,50.60
2023-07-21T01:14:50.912Z,50.50
2023-07-21T01:17:17.661Z,51.20
2023-07-21T01:19:48.553Z,50.50
2023-07-21T01:22:30.410Z,50.30
2023-07-21T01:24:57.945Z,50.30
2023-07-21T01:27:25.326Z,50.50
2023-07-21T01:29:52.626Z,50.20
2023-07-21T01:32:20.020Z,50.10
2023-07-21T01:34:47.033Z,49.70
2023-07-21T01:37:15.152Z,49.40
2023-07-21T01:39:42.129Z,49.40
2023-07-21T01:42:09.240Z,49.40
2023-07-21T01:44:36.247Z,49.40
2023-07-21T01:47:03.010Z,49.40
2023-07-21T01:49:32.298Z,49.50
2023-07-21T01:51:59.944Z,49.50
2023-07-21T01:54:38.151Z,49.70
2023-07-21T01:57:05.538Z,49.80
2023-07-21T01:59:32.583Z,50.00
2023-07-21T02:01:59.668Z,50.00
2023-07-21T02:04:26.578Z,49.90
2023-07-21T02:06:54.003Z,50.10
2023-07-21T02:09:21.876Z,50.00
2023-07-21T02:11:50.199Z,50.10
2023-07-21T02:14:17.801Z,50.30
2023-07-21T02:16:47.021Z,50.20
2023-07-21T02:19:16.060Z,50.30
2023-07-21T02:21:43.424Z,50.30
2023-07-21T02:24:10.198Z,50.40
2023-07-21T02:26:37.570Z,50.30
2023-07-21T02:29:04.560Z,50.40
2023-07-21T02:31:31.990Z,50.40
2023-07-21T02:33:59.554Z,50.40
2023-07-21T02:36:26.743Z,50.40
2023-07-21T02:38:54.007Z,50.60
2023-07-21T02:41:21.014Z,50.60
2023-07-21T02:43:48.523Z,50.60
2023-07-21T02:46:15.726Z,50.70
2023-07-21T02:48:42.577Z,50.70
2023-07-21T02:51:09.566Z,50.60
2023-07-21T02:53:36.413Z,50.70
2023-07-21T02:56:05.268Z,50.70
2023-07-21T02:58:33.713Z,50.60
2023-07-21T03:01:01.097Z,50.70
2023-07-21T03:03:28.225Z,50.50
2023-07-21T03:05:55.117Z,50.30
2023-07-21T03:08:28.334Z,50.20
2023-07-21T03:10:56.750Z,50.00
2023-07-21T03:13:26.679Z,50.00
2023-07-21T03:15:53.881Z,50.50
2023-07-21T03:18:20.693Z,50.00
2023-07-21T03:20:50.620Z,50.10
2023-07-21T03:23:17.512Z,50.10
2023-07-21T03:25:44.833Z,50.20
2023-07-21T03:28:11.886Z,50.40
2023-07-21T03:30:39.054Z,50.60
2023-07-21T03:33:05.909Z,50.70
2023-07-21T03:35:32.935Z,50.70
2023-07-21T03:38:00.047Z,50.60
2023-07-21T03:40:27.441Z,50.80
2023-07-21T03:42:54.685Z,51.00
2023-07-21T03:45:23.386Z,51.10
2023-07-21T03:47:50.418Z,51.50
2023-07-21T03:50:17.557Z,51.70
2023-07-21T03:52:44.611Z,52.10
2023-07-21T03:55:12.010Z,52.50
2023-07-21T03:57:41.189Z,52.70
2023-07-21T04:00:09.248Z,52.70
2023-07-21T04:02:36.278Z,52.80
2023-07-21T04:05:03.135Z,52.70
2023-07-21T04:07:30.195Z,52.70
2023-07-21T04:09:57.546Z,52.90
2023-07-21T04:12:25.066Z,52.90
2023-07-21T04:14:52.177Z,53.10
2023-07-21T04:17:19.004Z,53.20
2023-07-21T04:19:46.441Z,53.20
2023-07-21T04:22:14.506Z,53.60
2023-07-21T04:24:41.558Z,53.90
2023-07-21T04:27:08.601Z,54.00
2023-07-21T04:29:37.492Z,54.10
2023-07-21T04:32:06.465Z,54.00
2023-07-21T04:34:33.544Z,54.10
2023-07-21T04:37:01.151Z,54.00
2023-07-21T04:39:28.213Z,53.90
2023-07-21T04:41:55.238Z,53.80
2023-07-21T04:44:23.037Z,54.00
2023-07-21T04:46:50.057Z,53.60
2023-07-21T04:49:17.187Z,53.40
2023-07-21T04:51:44.238Z,53.50
2023-07-21T04:54:13.426Z,53.30
2023-07-21T04:56:40.352Z,53.10
2023-07-21T04:59:07.917Z,53.00
2023-07-21T05:01:34.683Z,53.00
2023-07-21T05:04:01.803Z,53.40
2023-07-21T05:06:28.963Z,53.50
2023-07-21T05:08:56.062Z,53.60
2023-07-21T05:11:23.109Z,53.60
2023-07-21T05:13:50.962Z,53.40
2023-07-21T05:16:19.177Z,53.50
2023-07-21T05:18:46.370Z,53.00
2023-07-21T05:21:14.845Z,52.80
2023-07-21T05:23:42.890Z,53.20
2023-07-21T05:26:09.784Z,52.60
2023-07-21T05:28:36.917Z,52.40
2023-07-21T05:31:05.281Z,52.00
2023-07-21T05:33:32.378Z,51.70
2023-07-21T05:36:09.754Z,51.80
2023-07-21T05:38:36.851Z,51.60
2023-07-21T05:41:03.904Z,51.40
2023-07-21T05:43:30.956Z,51.20
2023-07-21T05:45:57.952Z,51.40
2023-07-21T05:48:27.650Z,51.10
2023-07-21T05:50:54.477Z,51.10
2023-07-21T05:53:21.838Z,50.80
2023-07-21T05:55:49.179Z,50.50
2023-07-21T05:58:16.312Z,50.30
2023-07-21T06:00:43.166Z,50.20
2023-07-21T06:03:10.239Z,50.00
2023-07-21T06:05:37.768Z,49.70
2023-07-21T06:08:08.481Z,49.60
2023-07-21T06:10:35.537Z,49.60
2023-07-21T06:13:02.576Z,49.70
2023-07-21T06:15:30.025Z,49.70
2023-07-21T06:17:57.124Z,49.70
2023-07-21T06:20:26.103Z,49.80
2023-07-21T06:22:53.331Z,49.70
2023-07-21T06:25:20.443Z,49.70
2023-07-21T06:27:51.976Z,49.80
2023-07-21T06:30:18.837Z,49.70
2023-07-21T06:32:45.922Z,49.80
2023-07-21T06:35:12.951Z,49.80
2023-07-21T06:37:40.053Z,49.80
2023-07-21T06:40:08.159Z,49.90
2023-07-21T06:42:35.550Z,50.00
2023-07-21T06:45:02.401Z,50.00
2023-07-21T06:47:29.427Z,50.00
2023-07-21T06:49:56.469Z,50.00
2023-07-21T06:52:23.271Z,50.00
2023-07-21T06:54:50.347Z,50.00
2023-07-21T06:57:17.127Z,50.00
2023-07-21T06:59:44.536Z,50.00
2023-07-21T07:02:11.915Z,50.00
2023-07-21T07:04:39.162Z,50.00
2023-07-21T07:07:07.336Z,50.00
2023-07-21T07:09:34.676Z,50.00
2023-07-21T07:12:04.359Z,50.00
2023-07-21T07:14:31.661Z,49.90
2023-07-21T07:16:58.503Z,49.80
2023-07-21T07:19:28.208Z,49.70
2023-07-21T07:21:55.640Z,49.50
2023-07-21T07:24:22.726Z,49.30
2023-07-21T07:26:49.944Z,49.30
2023-07-21T07:29:22.267Z,49.30
2023-07-21T07:31:49.479Z,49.20
2023-07-21T07:34:16.485Z,49.20
2023-07-21T07:36:43.607Z,49.20
2023-07-21T07:39:13.157Z,49.30
2023-07-21T07:41:40.760Z,49.20
2023-07-21T07:44:10.390Z,49.20
2023-07-21T07:46:37.461Z,49.20
2023-07-21T07:49:04.833Z,49.30
2023-07-21T07:51:31.653Z,49.30
2023-07-21T07:53:59.123Z,49.30
2023-07-21T07:56:27.705Z,49.40
2023-07-21T07:58:55.272Z,49.40
2023-07-21T08:01:22.141Z,49.40
2023-07-21T08:03:49.393Z,49.40
2023-07-21T08:06:16.430Z,49.40
2023-07-21T08:08:43.735Z,49.40
2023-07-21T08:11:11.130Z,49.40
2023-07-21T08:13:39.941Z,49.40
2023-07-21T08:16:11.131Z,49.50
2023-07-21T08:18:38.055Z,49.50
2023-07-21T08:21:17.607Z,49.50
2023-07-21T08:23:44.712Z,49.50
2023-07-21T08:26:11.527Z,49.60
2023-07-21T08:28:38.562Z,49.40
2023-07-21T08:31:05.444Z,49.50
2023-07-21T08:33:32.156Z,49.40
2023-07-21T08:35:59.165Z,49.20
2023-07-21T08:38:26.242Z,49.10
2023-07-21T08:40:56.310Z,48.90
2023-07-21T08:43:23.365Z,48.80
2023-07-21T08:45:50.143Z,48.80
2023-07-21T08:48:19.111Z,48.70
2023-07-21T08:50:47.271Z,48.80
2023-07-21T08:53:16.080Z,48.90
2023-07-21T08:55:43.678Z,48.80
2023-07-21T08:58:10.715Z,48.90
2023-07-21T09:00:38.315Z,48.90
2023-07-21T09:03:05.502Z,48.90
2023-07-21T09:05:32.852Z,49.00
2023-07-21T09:07:59.651Z,49.00
2023-07-21T09:10:35.891Z,49.10
2023-07-21T09:13:03.100Z,49.00
2023-07-21T09:15:29.996Z,49.00
2023-07-21T09:17:57.179Z,49.10
2023-07-21T09:20:24.209Z,49.30
2023-07-21T09:22:51.218Z,49.00
2023-07-21T09:25:22.144Z,49.10
2023-07-21T09:27:59.026Z,49.10
2023-07-21T09:30:26.282Z,49.10
2023-07-21T09:32:54.397Z,49.10
2023-07-21T09:35:21.183Z,49.20
2023-07-21T09:37:49.989Z,49.10
2023-07-21T09:40:17.104Z,49.20
2023-07-21T09:42:44.798Z,49.20
2023-07-21T09:45:11.745Z,49.20
2023-07-21T09:47:39.779Z,49.10
2023-07-21T09:50:07.796Z,49.00
2023-07-21T09:52:40.039Z,48.80
2023-07-21T09:55:11.659Z,48.60
2023-07-21T09:57:41.512Z,48.60
2023-07-21T10:00:11.003Z,49.20
2023-07-21T10:02:38.447Z,48.50
2023-07-21T10:05:10.681Z,48.60
2023-07-21T10:07:38.514Z,48.60
2023-07-21T10:10:06.967Z,48.50
2023-07-21T10:12:48.022Z,48.60
2023-07-21T10:15:18.988Z,48.70
2023-07-21T10:17:59.262Z,48.70
2023-07-21T10:20:37.240Z,48.70
2023-07-21T10:23:04.316Z,48.80
2023-07-21T10:25:45.782Z,48.80
2023-07-21T10:28:13.331Z,48.90
2023-07-21T10:30:40.516Z,48.80
2023-07-21T10:33:14.514Z,48.90
2023-07-21T10:35:41.309Z,48.90
2023-07-21T10:38:14.660Z,48.90
2023-07-21T10:40:45.083Z,49.50
2023-07-21T10:43:12.157Z,49.00
2023-07-21T10:45:39.393Z,48.80
2023-07-21T10:48:13.067Z,48.60
2023-07-21T10:50:43.629Z,48.70
2023-07-21T10:53:12.969Z,48.40
2023-07-21T10:55:41.284Z,48.40
2023-07-21T10:58:08.324Z,48.40
2023-07-21T11:00:46.664Z,48.40
2023-07-21T11:03:13.821Z,48.50
2023-07-21T11:05:40.907Z,48.50
2023-07-21T11:08:11.014Z,48.50
2023-07-21T11:10:40.573Z,48.60
2023-07-21T11:13:09.380Z,48.60
2023-07-21T11:15:36.685Z,48.60
2023-07-21T11:18:04.038Z,48.50
2023-07-21T11:20:31.697Z,48.60
2023-07-21T11:22:59.129Z,48.60
2023-07-21T11:25:26.166Z,48.60
2023-07-21T11:27:53.186Z,48.80
2023-07-21T11:30:20.289Z,48.70
2023-07-21T11:32:47.805Z,48.80
2023-07-21T11:35:14.872Z,48.80
2023-07-21T11:37:42.415Z,48.80
2023-07-21T11:40:26.326Z,48.70
2023-07-21T11:42:54.306Z,48.60
2023-07-21T11:45:36.600Z,48.40
2023-07-21T11:48:10.708Z,48.30
2023-07-21T11:50:38.303Z,48.30
2023-07-21T11:53:06.855Z,48.30
2023-07-21T11:55:33.942Z,48.30
2023-07-21T11:58:01.028Z,48.40
2023-07-21T12:00:28.830Z,48.40
2023-07-21T12:03:02.134Z,48.40
2023-07-21T12:05:29.359Z,48.40
2023-07-21T12:07:56.409Z,49.10
2023-07-21T12:10:24.238Z,48.60
2023-07-21T12:12:53.523Z,48.50
2023-07-21T12:15:20.581Z,48.60
2023-07-21T12:17:50.354Z,48.60
2023-07-21T12:20:18.541Z,48.60
2023-07-21T12:22:46.628Z,48.60
2023-07-21T12:25:15.260Z,48.50
2023-07-21T12:27:42.588Z,48.50
2023-07-21T12:30:12.473Z,48.60
2023-07-21T12:32:39.802Z,48.50
2023-07-21T12:35:07.176Z,48.30
2023-07-21T12:37:35.566Z,48.30
2023-07-21T12:40:02.375Z,48.70
2023-07-21T12:42:30.961Z,48.10
2023-07-21T12:44:57.764Z,48.10
2023-07-21T12:47:24.709Z,48.10
2023-07-21T12:49:51.786Z,48.10
2023-07-21T12:52:18.615Z,48.20
2023-07-21T12:54:46.966Z,48.10
2023-07-21T12:57:13.873Z,48.30
2023-07-21T12:59:40.936Z,48.30
2023-07-21T13:02:08.166Z,48.30
2023-07-21T13:04:36.290Z,48.30
2023-07-21T13:07:10.855Z,48.30
2023-07-21T13:09:37.899Z,48.50
2023-07-21T13:12:05.030Z,48.40
2023-07-21T13:14:33.181Z,48.50
2023-07-21T13:17:00.320Z,49.10
2023-07-21T13:19:27.388Z,48.50
2023-07-21T13:21:54.432Z,48.50
2023-07-21T13:24:21.815Z,48.60
2023-07-21T13:26:48.932Z,48.40
2023-07-21T13:29:16.020Z,48.40
2023-07-21T13:31:43.432Z,48.40
2023-07-21T13:34:10.502Z,48.20
2023-07-21T13:36:37.316Z,48.20
2023-07-21T13:39:04.368Z,48.10
2023-07-21T13:41:32.927Z,48.10
2023-07-21T13:43:59.953Z,48.10
2023-07-21T13:46:27.424Z,48.20
2023-07-21T13:48:54.839Z,48.80
2023-07-21T13:51:22.228Z,48.30
2023-07-21T13:53:50.394Z,48.30
2023-07-21T13:56:18.188Z,48.30
2023-07-21T13:58:44.994Z,48.40
2023-07-21T14:01:13.128Z,48.40
2023-07-21T14:03:40.629Z,48.50
2023-07-21T14:06:07.772Z,48.40
2023-07-21T14:08:34.646Z,48.50
2023-07-21T14:11:01.666Z,48.60
2023-07-21T14:13:28.450Z,48.60
2023-07-21T14:15:55.460Z,48.60
2023-07-21T14:18:24.337Z,48.50
2023-07-21T14:20:51.176Z,48.90
2023-07-21T14:23:19.845Z,48.30
2023-07-21T14:25:46.894Z,48.20
2023-07-21T14:28:13.958Z,48.00
2023-07-21T14:30:40.838Z,48.20
2023-07-21T14:33:07.946Z,48.20
2023-07-21T14:35:35.029Z,48.10
2023-07-21T14:38:02.893Z,48.20
2023-07-21T14:40:29.914Z,48.20
2023-07-21T14:42:56.645Z,48.20
2023-07-21T14:45:23.656Z,48.20
2023-07-21T14:47:50.982Z,48.30
2023-07-21T14:50:23.143Z,48.30
2023-07-21T14:52:50.135Z,48.30
2023-07-21T14:55:17.338Z,48.30
2023-07-21T14:57:44.396Z,48.50
2023-07-21T15:00:15.075Z,48.40
2023-07-21T15:02:42.355Z,48.50
2023-07-21T15:05:09.496Z,48.40
2023-07-21T15:07:36.560Z,48.40
2023-07-21T15:10:03.395Z,48.50
2023-07-21T15:12:30.480Z,48.40
2023-07-21T15:14:57.903Z,48.20
2023-07-21T15:17:25.223Z,48.10
2023-07-21T15:19:52.449Z,47.90
2023-07-21T15:22:20.656Z,47.90
2023-07-21T15:24:47.841Z,47.90
2023-07-21T15:27:14.862Z,47.90
2023-07-21T15:29:41.692Z,47.90
2023-07-21T15:32:08.755Z,48.00
2023-07-21T15:34:36.100Z,48.00
2023-07-21T15:37:03.110Z,48.10
2023-07-21T15:39:29.891Z,48.10
2023-07-21T15:41:56.893Z,48.20
2023-07-21T15:44:24.045Z,48.20
2023-07-21T15:46:51.181Z,48.40
2023-07-21T15:49:18.028Z,48.40
2023-07-21T15:51:44.883Z,48.50
2023-07-21T15:54:17.414Z,48.60
2023-07-21T15:56:45.430Z,48.90
2023-07-21T15:59:12.468Z,49.20
2023-07-21T16:01:39.535Z,49.40
2023-07-21T16:04:07.034Z,49.80
2023-07-21T16:06:33.746Z,49.80
2023-07-21T16:09:01.638Z,49.80
2023-07-21T16:11:29.183Z,50.50
2023-07-21T16:13:56.373Z,50.10
2023-07-21T16:16:23.187Z,50.00
2023-07-21T16:18:50.507Z,49.70
2023-07-21T16:21:18.807Z,50.00
2023-07-21T16:23:45.728Z,50.00
2023-07-21T16:26:16.809Z,50.10
2023-07-21T16:28:44.987Z,50.10
2023-07-21T16:31:11.798Z,50.20
2023-07-21T16:33:38.881Z,50.30
2023-07-21T16:36:06.285Z,50.40
2023-07-21T16:38:33.184Z,50.50
2023-07-21T16:41:05.758Z,50.50
2023-07-21T16:43:32.709Z,50.50
2023-07-21T16:46:00.269Z,50.40
2023-07-21T16:48:30.422Z,50.40
2023-07-21T16:50:57.563Z,50.60
2023-07-21T16:53:25.772Z,51.00
2023-07-21T16:55:52.779Z,51.10
2023-07-21T16:58:20.560Z,50.90
2023-07-21T17:00:47.315Z,50.70
2023-07-21T17:03:14.661Z,50.60
2023-07-21T17:05:41.514Z,50.50
2023-07-21T17:08:08.938Z,50.60
2023-07-21T17:10:36.067Z,50.50
2023-07-21T17:13:03.132Z,50.50
2023-07-21T17:15:30.181Z,50.40
2023-07-21T17:18:00.661Z,50.40
2023-07-21T17:20:28.002Z,50.50
2023-07-21T17:22:54.747Z,50.50
2023-07-21T17:25:22.123Z,50.50
2023-07-21T17:27:49.867Z,50.50
2023-07-21T17:30:17.183Z,50.40
2023-07-21T17:32:45.529Z,50.50
2023-07-21T17:35:13.328Z,50.50
2023-07-21T17:37:40.687Z,50.80
2023-07-21T17:40:12.523Z,50.70
2023-07-21T17:42:39.932Z,50.60
2023-07-21T17:45:08.188Z,50.70
2023-07-21T17:47:36.032Z,50.70
2023-07-21T17:50:04.880Z,50.80
2023-07-21T17:52:31.928Z,50.70
2023-07-21T17:54:58.759Z,50.60
2023-07-21T17:57:25.538Z,50.50
2023-07-21T17:59:53.747Z,50.20
2023-07-21T18:02:20.637Z,50.20
2023-07-21T18:04:47.657Z,50.20
2023-07-21T18:07:14.645Z,50.20
2023-07-21T18:09:41.629Z,50.20
2023-07-21T18:12:09.117Z,50.20
2023-07-21T18:14:36.244Z,50.30
2023-07-21T18:17:03.160Z,50.50
2023-07-21T18:19:30.181Z,50.40
2023-07-21T18:21:57.079Z,50.40
2023-07-21T18:24:24.272Z,50.40
2023-07-21T18:26:51.450Z,50.40
2023-07-21T18:29:19.030Z,50.50
2023-07-21T18:31:46.114Z,50.50
2023-07-21T18:34:13.271Z,50.60
2023-07-21T18:36:40.118Z,50.60
2023-07-21T18:39:07.327Z,50.70
2023-07-21T18:41:34.530Z,50.80
2023-07-21T18:44:01.355Z,50.80
2023-07-21T18:46:28.823Z,50.80
2023-07-21T18:48:56.774Z,50.60
2023-07-21T18:51:23.852Z,50.50
2023-07-21T18:53:51.088Z,51.00
2023-07-21T18:56:18.122Z,50.20
2023-07-21T18:58:45.109Z,50.10
2023-07-21T19:01:12.077Z,50.10
2023-07-21T19:03:38.937Z,50.10
2023-07-21T19:06:06.317Z,50.10
2023-07-21T19:08:33.415Z,50.20
2023-07-21T19:11:00.416Z,50.20
2023-07-21T19:13:27.328Z,50.20
2023-07-21T19:15:54.476Z,50.40
2023-07-21T19:18:21.518Z,50.40
2023-07-21T19:20:48.367Z,50.40
2023-07-21T19:23:15.074Z,50.40
2023-07-21T19:25:50.307Z,50.40
2023-07-21T19:28:17.291Z,50.40
2023-07-21T19:30:44.322Z,50.40
2023-07-21T19:33:11.220Z,50.40
2023-07-21T19:35:38.284Z,50.50
2023-07-21T19:38:05.307Z,50.50
2023-07-21T19:40:32.130Z,50.60
2023-07-21T19:42:59.551Z,50.60
2023-07-21T19:45:26.349Z,50.80
2023-07-21T19:47:53.295Z,50.70
2023-07-21T19:50:20.887Z,50.60
2023-07-21T19:52:49.459Z,50.40
2023-07-21T19:55:17.406Z,50.50
2023-07-21T19:57:44.096Z,50.40
2023-07-21T20:00:12.584Z,50.20
2023-07-21T20:02:39.851Z,50.10
2023-07-21T20:05:07.215Z,50.10
2023-07-21T20:07:34.224Z,50.10
2023-07-21T20:10:00.981Z,50.50
2023-07-21T20:12:28.039Z,50.40
2023-07-21T20:14:55.087Z,50.70
2023-07-21T20:17:22.132Z,50.90
2023-07-21T20:19:50.001Z,51.00
2023-07-21T20:22:18.284Z,51.10
2023-07-21T20:24:45.925Z,51.30
2023-07-21T20:27:12.689Z,51.40
2023-07-21T20:29:39.764Z,51.60
2023-07-21T20:32:07.827Z,51.80
2023-07-21T20:34:34.911Z,51.80
2023-07-21T20:37:01.997Z,51.90
2023-07-21T20:39:29.147Z,52.00
2023-07-21T20:41:56.249Z,52.10
2023-07-21T20:44:24.324Z,52.20
2023-07-21T20:46:51.411Z,52.10
2023-07-21T20:49:18.211Z,52.00
2023-07-21T20:51:45.245Z,52.10
2023-07-21T20:54:12.187Z,52.20
2023-07-21T20:56:39.277Z,52.20
2023-07-21T20:59:06.067Z,52.30
2023-07-21T21:01:33.173Z,52.40
2023-07-21T21:04:00.319Z,52.40
2023-07-21T21:06:27.874Z,52.50
2023-07-21T21:08:54.862Z,52.70
2023-07-21T21:11:21.900Z,52.60
2023-07-21T21:13:48.650Z,52.60
2023-07-21T21:16:15.707Z,52.60
2023-07-21T21:18:42.950Z,52.70
2023-07-21T21:21:10.132Z,52.60
2023-07-21T21:23:37.160Z,52.40
2023-07-21T21:26:04.226Z,52.10
2023-07-21T21:28:31.496Z,52.00
2023-07-21T21:30:59.210Z,52.10
2023-07-21T21:33:26.523Z,52.30
2023-07-21T21:35:53.752Z,52.50
2023-07-21T21:38:21.833Z,52.70
2023-07-21T21:40:49.194Z,52.60
2023-07-21T21:43:16.021Z,52.60
2023-07-21T21:45:42.984Z,52.60
2023-07-21T21:48:10.056Z,53.10
2023-07-21T21:50:38.723Z,52.90
2023-07-21T21:53:05.640Z,53.00
2023-07-21T21:55:32.683Z,53.20
2023-07-21T21:57:59.740Z,53.30
2023-07-21T22:00:26.742Z,54.00
2023-07-21T22:02:53.888Z,53.40
2023-07-21T22:05:20.933Z,53.50
2023-07-21T22:07:47.909Z,53.50
2023-07-21T22:10:14.930Z,53.40
2023-07-21T22:12:42.020Z,53.50
2023-07-21T22:15:09.112Z,53.50
2023-07-21T22:17:36.245Z,53.60
2023-07-21T22:20:11.004Z,53.70
2023-07-21T22:22:38.819Z,53.70
2023-07-21T22:25:06.528Z,53.80
2023-07-21T22:27:33.736Z,53.90
2023-07-21T22:30:00.944Z,54.10
2023-07-21T22:32:28.074Z,53.80
2023-07-21T22:34:54.839Z,53.90
2023-07-21T22:37:21.605Z,53.90
2023-07-21T22:39:48.660Z,54.00
2023-07-21T22:42:15.700Z,54.00
2023-07-21T22:44:42.859Z,54.00
2023-07-21T22:47:11.950Z,54.20
2023-07-21T22:49:39.018Z,54.20
2023-07-21T22:52:07.687Z,54.00
2023-07-21T22:54:36.059Z,53.80
2023-07-21T22:57:03.489Z,53.70
2023-07-21T22:59:30.906Z,53.70
2023-07-21T23:01:57.916Z,53.50
2023-07-21T23:04:24.922Z,53.50
2023-07-21T23:06:53.306Z,53.70
2023-07-21T23:09:20.824Z,53.80
2023-07-21T23:11:47.866Z,54.50
2023-07-21T23:14:15.278Z,54.00
2023-07-21T23:16:42.271Z,54.20
2023-07-21T23:19:09.456Z,54.30
2023-07-21T23:21:36.469Z,54.30
2023-07-21T23:24:04.650Z,54.40
2023-07-21T23:26:31.648Z,54.50
2023-07-21T23:28:58.448Z,54.60
2023-07-21T23:31:26.019Z,54.70
2023-07-21T23:33:53.231Z,54.80
2023-07-21T23:36:20.239Z,54.90
2023-07-21T23:38:47.465Z,55.00
2023-07-21T23:41:14.588Z,55.20
2023-07-21T23:43:41.669Z,55.20
2023-07-21T23:46:08.470Z,55.20
2023-07-21T23:48:35.350Z,55.10
2023-07-21T23:51:02.169Z,55.20
2023-07-21T23:53:29.541Z,55.40
2023-07-21T23:55:56.593Z,55.40
2023-07-21T23:58:23.719Z,55.50
